CO40 weather

Vtol Heliport
Denver, Colorado, United States

Public forecast

Using degrees Fahrenheit for public forecast. Weather courtesy of forecast.io.

METAR (pilot weather report)

Closest report is Buckley Air Force Base, 11.4 nm (21.2 km) ESE. Retrieved 2019/04/24 08:58 UTC (34 minutes ago):

KBKF 240858Z 20007KT 10SM CLR 07/02 A3000 RMK AO2A SLP116 T00690022 58008

TAF (pilot weather forecast)

Forecast is more than 6 hours old.

Closest forecast is Buckley Air Force Base, 11.4 nm (21.2 km) ESE. Retrieved 2019/04/24 01:06 UTC (8 hours ago):

TAF KBKF 240100Z 2401/2507 01006KT 9999 FEW070 FEW200 QNH3000INS BECMG 2404/2405 21006KT 9999 SKC QNH3001INS BECMG 2416/2417 35009KT 9999 FEW060 FEW100 QNH2996INS BECMG 2500/2501 22006KT 9999 FEW060 SCT100 QNH2997INS TX21/2422Z TN05/2412Z